Time;durP1;ratioP1;P1;durP2;ratioP2;P2;SDS_P1;SDS_P2;PMS_P1;PMS_P2;Temp;Humidity;BMP_temperature;BMP_pressure;BME280_temperature;BME280_humidity;BME280_pressure;Samples;Min_cycle;Max_cycle;Signal;HPM_P1;HPM_P2
2022/07/03 00:01:19;;;;;;;6.05;2.33;;;;;;;;;;5017955;28;20064;-70
2022/07/03 00:03:45;;;;;;;5.72;3.17;;;;;;;;;;5021102;28;20045;-68
2022/07/03 00:06:11;;;;;;;6.82;3.03;;;;;;;;;;5021242;28;20383;-68
2022/07/03 00:08:38;;;;;;;7.28;3.10;;;;;;;;;;5019734;28;20059;-68
2022/07/03 00:11:05;;;;;;;6.50;3.15;;;;;;;;;;5019398;28;20450;-70
2022/07/03 00:13:31;;;;;;;8.00;3.00;;;;;;;;;;5022939;28;20057;-69
2022/07/03 00:15:57;;;;;;;5.50;2.83;;;;;;;;;;5020044;28;20041;-71
2022/07/03 00:18:23;;;;;;;10.25;2.90;;;;;;;;;;5019930;28;20049;-71
2022/07/03 00:20:54;;;;;;;7.70;2.75;;;;;;;;;;5017832;28;20045;-68
2022/07/03 00:23:22;;;;;;;8.75;2.50;;;;;;;;;;5020300;28;20577;-69
2022/07/03 00:25:49;;;;;;;7.32;2.88;;;;;;;;;;5019709;28;20149;-70
2022/07/03 00:28:19;;;;;;;5.80;3.15;;;;;;;;;;5019885;28;20163;-68
2022/07/03 00:30:48;;;;;;;8.13;3.05;;;;;;;;;;5017254;28;20049;-69
2022/07/03 00:33:15;;;;;;;11.15;3.00;;;;;;;;;;5022151;28;20132;-69
2022/07/03 00:35:42;;;;;;;6.60;2.30;;;;;;;;;;5022377;28;20490;-71
2022/07/03 00:38:11;;;;;;;7.05;2.40;;;;;;;;;;5022303;28;20072;-69
2022/07/03 00:40:37;;;;;;;6.47;2.45;;;;;;;;;;5017593;28;20631;-68
2022/07/03 00:43:04;;;;;;;6.80;2.65;;;;;;;;;;5019224;28;20560;-67
2022/07/03 00:45:34;;;;;;;11.23;2.72;;;;;;;;;;5018857;28;20115;-68
2022/07/03 00:48:02;;;;;;;5.53;2.65;;;;;;;;;;5023386;28;20050;-68
2022/07/03 00:50:35;;;;;;;5.78;2.50;;;;;;;;;;5021819;28;20054;-67
2022/07/03 00:53:02;;;;;;;6.72;3.00;;;;;;;;;;5024133;28;20056;-68
2022/07/03 00:55:29;;;;;;;10.15;3.10;;;;;;;;;;5023437;28;20100;-68
2022/07/03 00:57:56;;;;;;;9.30;2.85;;;;;;;;;;5024681;28;20045;-69
2022/07/03 01:00:23;;;;;;;8.80;2.90;;;;;;;;;;5020899;28;20049;-68
2022/07/03 01:02:58;;;;;;;7.97;2.95;;;;;;;;;;5023975;28;20497;-67
2022/07/03 01:05:29;;;;;;;7.63;2.88;;;;;;;;;;5022912;28;20053;-69
2022/07/03 01:08:30;;;;;;;11.55;3.13;;;;;;;;;;5024645;28;20037;-67
2022/07/03 01:11:31;;;;;;;8.00;2.65;;;;;;;;;;5024640;28;20479;-68
2022/07/03 01:14:03;;;;;;;6.10;2.95;;;;;;;;;;5022235;28;20085;-68
2022/07/03 01:17:04;;;;;;;7.68;2.88;;;;;;;;;;5024722;28;20050;-69
2022/07/03 01:19:41;;;;;;;11.30;2.78;;;;;;;;;;5022178;28;20057;-70
2022/07/03 01:22:41;;;;;;;11.57;3.35;;;;;;;;;;5024673;28;20084;-69
2022/07/03 01:25:36;;;;;;;5.22;3.05;;;;;;;;;;5022600;28;20045;-68
2022/07/03 01:28:15;;;;;;;7.97;2.88;;;;;;;;;;5023691;28;20045;-70
2022/07/03 01:30:48;;;;;;;7.82;2.88;;;;;;;;;;5023383;28;20100;-68
2022/07/03 01:33:17;;;;;;;11.88;3.08;;;;;;;;;;5024704;28;20190;-69
2022/07/03 01:36:05;;;;;;;7.90;3.17;;;;;;;;;;5025783;28;20045;-67
2022/07/03 01:38:33;;;;;;;4.60;2.78;;;;;;;;;;5026980;28;20495;-69
2022/07/03 01:41:01;;;;;;;11.75;3.00;;;;;;;;;;5023363;28;20549;-69
2022/07/03 01:43:36;;;;;;;6.63;2.75;;;;;;;;;;5026419;28;20117;-69
2022/07/03 01:46:03;;;;;;;9.82;2.90;;;;;;;;;;5022333;28;20049;-69
2022/07/03 01:48:31;;;;;;;5.93;2.42;;;;;;;;;;5022627;28;20507;-67
2022/07/03 01:50:57;;;;;;;5.55;2.55;;;;;;;;;;5023065;28;20122;-68
2022/07/03 01:53:26;;;;;;;5.20;2.40;;;;;;;;;;5025163;28;20057;-68
2022/07/03 01:55:55;;;;;;;9.93;2.80;;;;;;;;;;5021945;28;20111;-68
2022/07/03 01:58:21;;;;;;;5.80;2.85;;;;;;;;;;5020934;28;20164;-69
2022/07/03 02:01:17;;;;;;;10.35;2.83;;;;;;;;;;5021390;28;20044;-69
2022/07/03 02:04:09;;;;;;;8.73;2.75;;;;;;;;;;4998664;28;20581;-69
2022/07/03 02:06:59;;;;;;;5.43;2.42;;;;;;;;;;5023420;28;20135;-68
2022/07/03 02:09:41;;;;;;;5.18;2.63;;;;;;;;;;5020655;28;20049;-67
2022/07/03 02:12:11;;;;;;;5.22;2.42;;;;;;;;;;5021737;28;20067;-67
2022/07/03 02:14:40;;;;;;;4.90;2.50;;;;;;;;;;5023206;28;20111;-68
2022/07/03 02:17:15;;;;;;;6.65;2.58;;;;;;;;;;5021728;28;20091;-74
2022/07/03 02:19:59;;;;;;;7.22;2.85;;;;;;;;;;5020099;28;20137;-68
2022/07/03 02:22:29;;;;;;;5.90;2.80;;;;;;;;;;5019822;28;20111;-68
2022/07/03 02:25:11;;;;;;;7.32;2.53;;;;;;;;;;5021438;28;20080;-68
2022/07/03 02:28:03;;;;;;;9.20;3.03;;;;;;;;;;5021550;28;20053;-67
2022/07/03 02:30:30;;;;;;;7.05;2.70;;;;;;;;;;5013892;28;20045;-67
2022/07/03 02:33:01;;;;;;;7.47;3.35;;;;;;;;;;5020859;28;20422;-68
2022/07/03 02:35:31;;;;;;;4.75;2.70;;;;;;;;;;5020704;28;20095;-67
2022/07/03 02:38:09;;;;;;;6.88;2.78;;;;;;;;;;5021924;28;20096;-69
2022/07/03 02:40:56;;;;;;;7.88;2.47;;;;;;;;;;5019556;28;20057;-67
2022/07/03 02:43:41;;;;;;;5.68;3.00;;;;;;;;;;5019836;28;20083;-67
2022/07/03 02:49:19;;;;;;;6.95;2.95;;;;;;;;;;5018330;28;20077;-68
2022/07/03 02:51:53;;;;;;;9.32;2.90;;;;;;;;;;5023883;28;20115;-69
2022/07/03 02:54:20;;;;;;;8.25;2.55;;;;;;;;;;5022613;28;20129;-68
2022/07/03 02:57:01;;;;;;;5.68;2.58;;;;;;;;;;5019220;28;20690;-66
2022/07/03 02:59:42;;;;;;;8.07;2.85;;;;;;;;;;5018472;28;20068;-69
2022/07/03 03:02:26;;;;;;;9.13;2.92;;;;;;;;;;5020380;28;20049;-67
2022/07/03 03:05:05;;;;;;;6.35;2.22;;;;;;;;;;5020612;28;20038;-67
2022/07/03 03:07:41;;;;;;;5.90;2.40;;;;;;;;;;5021691;28;20057;-67
2022/07/03 03:10:08;;;;;;;10.25;2.45;;;;;;;;;;5022377;28;20045;-67
2022/07/03 03:12:37;;;;;;;6.53;2.60;;;;;;;;;;5020479;28;20057;-70
2022/07/03 03:15:04;;;;;;;4.30;2.25;;;;;;;;;;5021106;28;20096;-70
2022/07/03 03:17:43;;;;;;;5.18;2.38;;;;;;;;;;5023601;28;20128;-67
2022/07/03 03:20:15;;;;;;;5.57;2.58;;;;;;;;;;5020677;28;20054;-68
2022/07/03 03:23:04;;;;;;;6.25;2.28;;;;;;;;;;5022474;28;20579;-67
2022/07/03 03:25:30;;;;;;;7.18;2.42;;;;;;;;;;5021453;28;20053;-65
2022/07/03 03:28:00;;;;;;;5.70;2.33;;;;;;;;;;5021352;28;20078;-68
2022/07/03 03:30:26;;;;;;;4.65;2.38;;;;;;;;;;5019622;28;20049;-67
2022/07/03 03:32:52;;;;;;;4.35;2.20;;;;;;;;;;5023728;28;20038;-67
2022/07/03 03:35:19;;;;;;;6.88;2.60;;;;;;;;;;5017792;28;20115;-67
2022/07/03 03:37:48;;;;;;;5.13;2.22;;;;;;;;;;5015232;28;20049;-67
2022/07/03 03:40:15;;;;;;;7.68;2.67;;;;;;;;;;5015349;28;20414;-68
2022/07/03 03:42:41;;;;;;;4.70;2.30;;;;;;;;;;5013184;28;20434;-67
2022/07/03 03:45:07;;;;;;;7.03;2.50;;;;;;;;;;5019891;28;20045;-66
2022/07/03 03:47:33;;;;;;;6.18;2.55;;;;;;;;;;5020618;28;21295;-68
2022/07/03 03:50:00;;;;;;;9.73;2.42;;;;;;;;;;5018146;28;20457;-67
2022/07/03 03:52:26;;;;;;;7.05;2.92;;;;;;;;;;5022596;28;20049;-66
2022/07/03 03:54:52;;;;;;;5.22;2.25;;;;;;;;;;5020240;28;20041;-66
2022/07/03 03:57:20;;;;;;;7.25;2.33;;;;;;;;;;5020879;28;20057;-68
2022/07/03 03:59:47;;;;;;;6.10;2.50;;;;;;;;;;5018715;28;20148;-68
2022/07/03 04:02:13;;;;;;;8.77;2.42;;;;;;;;;;5019584;28;20041;-69
2022/07/03 04:04:39;;;;;;;5.53;2.60;;;;;;;;;;5020365;28;20514;-67
2022/07/03 04:07:05;;;;;;;6.22;2.58;;;;;;;;;;5020062;28;20086;-68
2022/07/03 04:09:31;;;;;;;5.63;2.53;;;;;;;;;;5018077;28;20549;-67
2022/07/03 04:11:57;;;;;;;7.05;2.65;;;;;;;;;;5020062;28;20457;-68
2022/07/03 04:14:23;;;;;;;4.95;2.55;;;;;;;;;;5022313;28;20042;-69
2022/07/03 04:16:49;;;;;;;5.85;2.83;;;;;;;;;;5021039;28;20712;-67
2022/07/03 04:19:15;;;;;;;7.90;2.25;;;;;;;;;;5018610;28;20517;-68
2022/07/03 04:21:41;;;;;;;7.38;2.95;;;;;;;;;;5027651;28;20053;-68
2022/07/03 04:24:08;;;;;;;6.13;2.35;;;;;;;;;;5028088;28;20637;-67
2022/07/03 04:26:34;;;;;;;6.13;2.72;;;;;;;;;;5026069;28;20050;-67
2022/07/03 04:28:59;;;;;;;9.55;2.72;;;;;;;;;;5025072;28;20041;-67
2022/07/03 04:31:26;;;;;;;5.72;2.90;;;;;;;;;;5026180;28;20064;-68
2022/07/03 04:33:52;;;;;;;6.30;2.67;;;;;;;;;;5026805;28;22320;-68
2022/07/03 04:36:17;;;;;;;7.57;2.90;;;;;;;;;;5027239;28;20507;-68
2022/07/03 04:38:44;;;;;;;5.38;3.20;;;;;;;;;;5024361;28;20473;-68
2022/07/03 04:41:10;;;;;;;6.80;3.17;;;;;;;;;;5025726;28;20053;-68
2022/07/03 04:43:38;;;;;;;7.38;3.00;;;;;;;;;;5026653;28;20068;-67
2022/07/03 04:46:04;;;;;;;6.40;2.95;;;;;;;;;;5025472;28;20051;-68
2022/07/03 04:48:30;;;;;;;9.20;3.33;;;;;;;;;;5028406;28;20049;-69
2022/07/03 04:50:56;;;;;;;8.25;2.92;;;;;;;;;;5026297;28;20133;-68
2022/07/03 04:53:22;;;;;;;5.93;2.60;;;;;;;;;;5027969;28;20052;-68
2022/07/03 04:55:48;;;;;;;10.57;3.83;;;;;;;;;;5029503;28;20049;-65
2022/07/03 04:58:14;;;;;;;6.78;3.25;;;;;;;;;;5027316;28;20102;-67
2022/07/03 05:00:43;;;;;;;10.40;3.10;;;;;;;;;;5025966;28;20148;-67
2022/07/03 05:03:08;;;;;;;10.85;3.80;;;;;;;;;;5028387;28;20056;-66
2022/07/03 05:05:34;;;;;;;7.18;3.10;;;;;;;;;;5025624;28;20057;-66
2022/07/03 05:08:00;;;;;;;11.30;3.10;;;;;;;;;;5027075;28;20118;-68
2022/07/03 05:10:27;;;;;;;5.63;3.05;;;;;;;;;;5025413;28;20045;-66
2022/07/03 05:12:53;;;;;;;7.28;2.97;;;;;;;;;;5025189;28;20057;-68
2022/07/03 05:15:19;;;;;;;10.40;3.17;;;;;;;;;;5025976;28;20052;-68
2022/07/03 05:17:45;;;;;;;7.63;2.80;;;;;;;;;;5026500;28;20075;-68
2022/07/03 05:20:23;;;;;;;7.85;3.13;;;;;;;;;;5023382;28;20045;-68
2022/07/03 05:22:51;;;;;;;6.65;3.00;;;;;;;;;;5025022;28;20100;-68
2022/07/03 05:25:17;;;;;;;8.20;3.47;;;;;;;;;;5025988;28;20460;-68
2022/07/03 05:27:43;;;;;;;8.65;2.97;;;;;;;;;;5027758;28;20053;-68
2022/07/03 05:30:10;;;;;;;5.80;3.40;;;;;;;;;;5024735;28;20053;-67
2022/07/03 05:32:35;;;;;;;7.18;3.17;;;;;;;;;;5021885;28;20057;-68
2022/07/03 05:35:02;;;;;;;7.93;2.92;;;;;;;;;;5023115;28;20091;-67
2022/07/03 05:37:28;;;;;;;8.43;3.35;;;;;;;;;;5024616;28;20045;-68
2022/07/03 05:39:53;;;;;;;5.20;3.05;;;;;;;;;;5021598;28;20562;-67
2022/07/03 05:42:19;;;;;;;6.03;3.10;;;;;;;;;;5025683;28;20337;-69
2022/07/03 05:44:45;;;;;;;6.97;3.00;;;;;;;;;;5025220;28;20680;-68
2022/07/03 05:47:11;;;;;;;8.25;3.58;;;;;;;;;;5023377;28;20057;-70
2022/07/03 05:49:37;;;;;;;8.32;3.30;;;;;;;;;;5022747;28;21011;-68
2022/07/03 05:52:03;;;;;;;8.70;3.45;;;;;;;;;;5021904;28;20056;-69
2022/07/03 05:54:29;;;;;;;7.03;3.28;;;;;;;;;;5025022;28;20084;-72
2022/07/03 05:56:54;;;;;;;11.25;3.47;;;;;;;;;;5022878;28;20625;-68
2022/07/03 05:59:20;;;;;;;6.35;3.25;;;;;;;;;;5024395;28;20053;-70
2022/07/03 06:01:46;;;;;;;5.95;3.55;;;;;;;;;;5024475;28;20052;-69
2022/07/03 06:04:12;;;;;;;9.88;3.35;;;;;;;;;;5023880;28;20045;-68
2022/07/03 06:06:38;;;;;;;9.13;3.67;;;;;;;;;;5023200;28;20393;-67
2022/07/03 06:09:04;;;;;;;15.10;3.70;;;;;;;;;;5021797;28;20049;-68
2022/07/03 06:11:30;;;;;;;9.10;3.60;;;;;;;;;;5023642;28;20049;-67
2022/07/03 06:13:56;;;;;;;9.43;3.45;;;;;;;;;;5022043;28;20188;-68
2022/07/03 06:16:22;;;;;;;11.32;3.72;;;;;;;;;;5022083;28;20038;-66
2022/07/03 06:18:48;;;;;;;11.18;3.78;;;;;;;;;;5019516;28;20041;-68
2022/07/03 06:21:14;;;;;;;7.88;3.40;;;;;;;;;;5020025;28;20148;-66
2022/07/03 06:23:39;;;;;;;5.47;3.63;;;;;;;;;;5022385;28;20140;-69
2022/07/03 06:26:05;;;;;;;12.02;3.85;;;;;;;;;;5021834;28;20099;-68
2022/07/03 06:28:31;;;;;;;16.75;3.90;;;;;;;;;;5023410;28;20050;-70
2022/07/03 06:30:57;;;;;;;9.15;3.60;;;;;;;;;;5018805;28;20055;-69
2022/07/03 06:33:23;;;;;;;6.70;3.65;;;;;;;;;;5022812;28;20144;-68
2022/07/03 06:35:49;;;;;;;11.48;3.83;;;;;;;;;;5021707;28;20053;-67
2022/07/03 06:38:15;;;;;;;16.77;3.78;;;;;;;;;;5022967;28;20053;-69
2022/07/03 06:40:41;;;;;;;9.77;3.45;;;;;;;;;;5021369;28;20045;-75
2022/07/03 06:43:07;;;;;;;7.88;3.40;;;;;;;;;;5019839;28;20050;-71
2022/07/03 06:45:32;;;;;;;6.07;3.15;;;;;;;;;;5020882;28;20080;-69
2022/07/03 06:47:58;;;;;;;9.25;3.45;;;;;;;;;;5022916;28;20052;-68
2022/07/03 06:50:24;;;;;;;5.95;3.03;;;;;;;;;;5016975;28;20053;-69
2022/07/03 06:52:50;;;;;;;6.05;2.90;;;;;;;;;;5023364;28;20045;-69
2022/07/03 06:55:16;;;;;;;8.55;3.35;;;;;;;;;;5022512;28;20678;-70
2022/07/03 06:57:42;;;;;;;7.15;2.60;;;;;;;;;;5019985;28;20061;-68
2022/07/03 07:00:08;;;;;;;6.38;2.50;;;;;;;;;;5018376;28;20053;-68
2022/07/03 07:02:34;;;;;;;7.85;2.80;;;;;;;;;;5025819;28;20095;-72
2022/07/03 07:05:00;;;;;;;4.78;2.53;;;;;;;;;;5022566;28;20112;-68
2022/07/03 07:07:26;;;;;;;8.88;2.80;;;;;;;;;;5023314;28;20466;-68
2022/07/03 07:09:52;;;;;;;5.28;2.53;;;;;;;;;;5020350;28;20045;-71
2022/07/03 07:12:18;;;;;;;8.40;2.72;;;;;;;;;;5021892;28;21022;-69
2022/07/03 07:14:44;;;;;;;5.13;2.58;;;;;;;;;;5023481;28;20049;-71
2022/07/03 07:17:10;;;;;;;5.57;2.03;;;;;;;;;;5020231;28;20133;-68
2022/07/03 07:19:36;;;;;;;5.53;2.70;;;;;;;;;;5020433;28;20053;-67
2022/07/03 07:22:02;;;;;;;9.52;2.10;;;;;;;;;;5021031;28;20038;-71
2022/07/03 07:24:29;;;;;;;5.03;2.45;;;;;;;;;;5024212;28;20105;-69
2022/07/03 07:26:55;;;;;;;8.73;2.33;;;;;;;;;;5022366;28;20434;-68
2022/07/03 07:29:20;;;;;;;7.68;2.00;;;;;;;;;;5019993;28;20050;-70
2022/07/03 07:31:46;;;;;;;8.38;2.67;;;;;;;;;;5019474;28;20069;-69
2022/07/03 07:34:13;;;;;;;4.55;2.30;;;;;;;;;;5022537;28;20054;-69
2022/07/03 07:36:39;;;;;;;6.88;2.50;;;;;;;;;;5021888;28;20049;-70
2022/07/03 07:39:05;;;;;;;7.75;2.85;;;;;;;;;;5015622;28;20045;-68
2022/07/03 07:41:31;;;;;;;8.35;2.40;;;;;;;;;;5020684;28;20039;-68
2022/07/03 07:43:57;;;;;;;7.68;2.67;;;;;;;;;;5019019;28;20051;-70
2022/07/03 07:46:23;;;;;;;5.57;2.80;;;;;;;;;;5021309;28;20072;-69
2022/07/03 07:48:49;;;;;;;10.90;3.25;;;;;;;;;;5017000;28;20068;-68
2022/07/03 07:51:16;;;;;;;10.70;6.45;;;;;;;;;;5022410;28;20049;-68
2022/07/03 07:53:42;;;;;;;9.52;3.50;;;;;;;;;;5014785;28;20068;-69
2022/07/03 07:56:08;;;;;;;6.05;3.00;;;;;;;;;;5015653;28;20704;-70
2022/07/03 07:58:33;;;;;;;5.50;2.78;;;;;;;;;;5019382;28;20060;-71
2022/07/03 08:06:28;;;;;;;9.50;2.70;;;;;;;;;;5020104;28;20103;-73
2022/07/03 08:08:54;;;;;;;7.40;2.33;;;;;;;;;;5020313;28;20084;-72
2022/07/03 08:11:20;;;;;;;5.72;2.90;;;;;;;;;;5022113;28;20083;-71
2022/07/03 08:13:46;;;;;;;4.57;2.60;;;;;;;;;;5020473;28;20412;-74
2022/07/03 08:16:13;;;;;;;8.32;2.40;;;;;;;;;;5020733;28;20084;-75
2022/07/03 08:18:39;;;;;;;8.00;2.70;;;;;;;;;;5020376;28;20060;-72
2022/07/03 08:21:04;;;;;;;8.30;3.17;;;;;;;;;;5017476;28;20041;-75
2022/07/03 08:23:30;;;;;;;10.05;2.95;;;;;;;;;;5017706;28;20487;-76
2022/07/03 08:25:56;;;;;;;10.65;2.92;;;;;;;;;;5023854;28;20046;-80
2022/07/03 08:28:22;;;;;;;8.30;2.33;;;;;;;;;;5023085;28;20105;-75
2022/07/03 08:30:48;;;;;;;3.45;2.00;;;;;;;;;;5019474;28;20068;-74
2022/07/03 08:33:14;;;;;;;8.55;2.40;;;;;;;;;;5021334;28;20045;-76
2022/07/03 08:35:40;;;;;;;4.97;2.35;;;;;;;;;;5024849;28;20061;-70
2022/07/03 08:38:06;;;;;;;5.65;2.35;;;;;;;;;;5018544;28;20053;-70
2022/07/03 08:40:33;;;;;;;6.63;2.90;;;;;;;;;;5016422;28;20418;-76
2022/07/03 08:43:03;;;;;;;6.50;2.78;;;;;;;;;;5022927;28;20040;-78
2022/07/03 08:45:33;;;;;;;9.95;2.70;;;;;;;;;;5025662;28;20049;-81
2022/07/03 08:47:59;;;;;;;10.43;2.63;;;;;;;;;;5020774;28;20129;-76
2022/07/03 08:50:25;;;;;;;8.43;3.42;;;;;;;;;;5017391;28;20068;-77
2022/07/03 08:52:51;;;;;;;18.85;7.05;;;;;;;;;;5020420;28;20461;-70
2022/07/03 08:55:19;;;;;;;22.33;7.35;;;;;;;;;;5018692;28;20049;-69
2022/07/03 08:57:46;;;;;;;12.15;4.25;;;;;;;;;;5020064;28;20076;-73
2022/07/03 09:00:14;;;;;;;11.95;5.22;;;;;;;;;;5019714;28;20489;-72
2022/07/03 09:02:43;;;;;;;22.88;9.15;;;;;;;;;;5028736;28;20046;-75
2022/07/03 09:05:14;;;;;;;11.20;2.90;;;;;;;;;;5027999;28;20111;-72
2022/07/03 09:07:43;;;;;;;8.02;2.47;;;;;;;;;;5023212;28;20133;-73
2022/07/03 09:10:12;;;;;;;9.07;2.80;;;;;;;;;;5024337;28;20403;-74
2022/07/03 09:12:38;;;;;;;7.70;2.90;;;;;;;;;;5027350;28;20065;-75
2022/07/03 09:15:06;;;;;;;6.22;2.50;;;;;;;;;;5023684;28;20120;-77
2022/07/03 09:17:33;;;;;;;9.25;2.47;;;;;;;;;;5023855;28;20046;-75
2022/07/03 09:20:01;;;;;;;8.05;2.80;;;;;;;;;;5019497;28;20045;-74
2022/07/03 09:22:29;;;;;;;6.63;2.22;;;;;;;;;;5019398;28;20045;-76
2022/07/03 09:25:14;;;;;;;7.70;2.88;;;;;;;;;;5052410;28;20786;-74
2022/07/03 09:27:50;;;;;;;9.52;2.92;;;;;;;;;;5023208;28;20041;-75
2022/07/03 09:30:16;;;;;;;10.13;2.55;;;;;;;;;;5019763;28;20097;-75
2022/07/03 09:32:46;;;;;;;6.75;3.08;;;;;;;;;;5024785;28;20049;-76
2022/07/03 09:35:23;;;;;;;9.15;2.70;;;;;;;;;;5026469;28;20208;-74
2022/07/03 09:37:55;;;;;;;6.90;2.97;;;;;;;;;;5021767;28;20061;-78
2022/07/03 09:40:22;;;;;;;6.30;2.60;;;;;;;;;;5019530;28;20135;-76
2022/07/03 09:43:02;;;;;;;21.35;7.32;;;;;;;;;;5023221;28;20064;-74
2022/07/03 09:45:52;;;;;;;24.98;9.13;;;;;;;;;;5022400;28;20108;-73
2022/07/03 09:48:35;;;;;;;7.72;3.22;;;;;;;;;;5021961;28;20668;-74
2022/07/03 09:51:26;;;;;;;10.10;3.30;;;;;;;;;;5022502;28;20068;-73
2022/07/03 09:53:55;;;;;;;10.07;3.10;;;;;;;;;;5022343;28;20088;-74
2022/07/03 09:56:26;;;;;;;9.63;3.75;;;;;;;;;;5024298;28;20131;-72
2022/07/03 09:59:18;;;;;;;7.97;3.17;;;;;;;;;;5020707;28;20049;-74
2022/07/03 10:01:46;;;;;;;8.32;2.88;;;;;;;;;;5022303;28;20431;-75
2022/07/03 10:04:13;;;;;;;8.15;2.80;;;;;;;;;;5022386;28;20049;-74
2022/07/03 10:06:58;;;;;;;9.00;2.55;;;;;;;;;;5021919;28;20415;-74
2022/07/03 10:09:31;;;;;;;8.65;2.67;;;;;;;;;;5018637;28;20053;-74
2022/07/03 10:11:59;;;;;;;7.10;2.70;;;;;;;;;;5022132;28;20076;-74
2022/07/03 10:14:28;;;;;;;7.50;2.47;;;;;;;;;;5024514;28;20364;-71
2022/07/03 10:16:59;;;;;;;3.70;2.42;;;;;;;;;;5020219;28;20080;-79
2022/07/03 10:19:39;;;;;;;7.32;2.38;;;;;;;;;;5021409;28;20136;-74
2022/07/03 10:22:15;;;;;;;8.90;2.72;;;;;;;;;;5021771;28;20092;-76
2022/07/03 10:24:42;;;;;;;21.58;8.93;;;;;;;;;;5021333;28;20056;-75
2022/07/03 10:27:08;;;;;;;9.30;3.40;;;;;;;;;;5020314;28;20106;-71
2022/07/03 10:29:36;;;;;;;6.63;3.17;;;;;;;;;;5021598;28;20053;-73
2022/07/03 10:32:06;;;;;;;8.82;2.85;;;;;;;;;;5021301;28;20175;-76
2022/07/03 10:34:33;;;;;;;8.60;3.00;;;;;;;;;;5023394;28;20050;-75
2022/07/03 10:37:01;;;;;;;8.98;3.28;;;;;;;;;;5022946;28;20086;-72
2022/07/03 10:39:35;;;;;;;10.57;2.83;;;;;;;;;;5020203;28;20105;-73
2022/07/03 10:45:13;;;;;;;8.23;3.00;;;;;;;;;;5025446;28;20056;-73
2022/07/03 10:47:48;;;;;;;9.20;2.85;;;;;;;;;;5019031;28;20616;-72
2022/07/03 10:50:19;;;;;;;7.32;2.50;;;;;;;;;;5023165;28;20049;-74
2022/07/03 10:52:45;;;;;;;5.88;2.63;;;;;;;;;;5023521;28;20049;-74
2022/07/03 10:55:13;;;;;;;4.53;2.63;;;;;;;;;;5023397;28;20045;-74
2022/07/03 10:57:40;;;;;;;9.85;2.90;;;;;;;;;;5019879;28;20037;-78
2022/07/03 11:00:15;;;;;;;8.43;2.40;;;;;;;;;;5017626;28;20517;-73
2022/07/03 11:02:43;;;;;;;6.35;2.75;;;;;;;;;;5019982;28;20045;-75
2022/07/03 11:05:22;;;;;;;9.98;2.55;;;;;;;;;;5022116;28;20049;-75
2022/07/03 11:07:52;;;;;;;7.38;3.00;;;;;;;;;;5022763;28;20487;-76
2022/07/03 11:10:17;;;;;;;4.32;2.28;;;;;;;;;;5018837;28;20053;-74
2022/07/03 11:12:56;;;;;;;7.15;2.13;;;;;;;;;;5019998;28;20049;-73
2022/07/03 11:15:41;;;;;;;5.57;2.28;;;;;;;;;;5022474;28;20059;-73
2022/07/03 11:18:14;;;;;;;7.38;2.47;;;;;;;;;;5019875;28;20046;-75
2022/07/03 11:20:43;;;;;;;6.68;1.80;;;;;;;;;;5020625;28;20053;-75
2022/07/03 11:23:27;;;;;;;7.70;1.95;;;;;;;;;;5020650;28;20060;-72
2022/07/03 11:25:54;;;;;;;;;;;;;;;;;;5021518;28;20049;-71
2022/07/03 11:28:32;;;;;;;5.05;1.83;;;;;;;;;;5020953;28;19936;-77
2022/07/03 11:33:51;;;;;;;5.35;1.75;;;;;;;;;;5020034;28;20477;-74
2022/07/03 11:36:17;;;;;;;4.45;2.03;;;;;;;;;;5018175;28;20104;-76
2022/07/03 11:38:57;;;;;;;5.45;1.70;;;;;;;;;;5027509;28;20406;-73
2022/07/03 11:41:36;;;;;;;4.47;1.50;;;;;;;;;;5028191;28;20049;-77
2022/07/03 11:44:05;;;;;;;2.88;1.48;;;;;;;;;;5027268;28;20570;-74
2022/07/03 11:46:34;;;;;;;4.32;1.50;;;;;;;;;;5027873;28;20054;-73
2022/07/03 11:49:08;;;;;;;4.10;1.60;;;;;;;;;;5033972;28;20049;-75
2022/07/03 11:51:35;;;;;;;3.83;1.40;;;;;;;;;;5029421;28;20049;-73
2022/07/03 11:54:02;;;;;;;3.13;1.50;;;;;;;;;;5029848;28;20053;-75
2022/07/03 11:56:28;;;;;;;5.15;1.42;;;;;;;;;;5026760;28;20077;-75
2022/07/03 11:58:56;;;;;;;5.03;1.45;;;;;;;;;;5026232;28;20051;-70
2022/07/03 12:01:23;;;;;;;5.88;1.35;;;;;;;;;;5028197;28;20118;-72
2022/07/03 12:03:49;;;;;;;2.78;1.38;;;;;;;;;;5028144;28;20045;-77
2022/07/03 12:06:16;;;;;;;4.35;1.48;;;;;;;;;;5026799;28;20187;-77
2022/07/03 12:08:46;;;;;;;6.18;1.85;;;;;;;;;;5026377;28;20057;-73
2022/07/03 12:11:16;;;;;;;4.47;1.45;;;;;;;;;;5030037;28;20046;-77
2022/07/03 12:13:43;;;;;;;8.73;1.65;;;;;;;;;;5027676;28;20131;-74
2022/07/03 12:16:14;;;;;;;4.93;1.58;;;;;;;;;;5027133;28;20048;-73
2022/07/03 12:18:47;;;;;;;4.30;1.52;;;;;;;;;;5024953;28;20124;-77
2022/07/03 12:21:14;;;;;;;;;;;;;;;;;;5031837;28;20629;-78
2022/07/03 12:23:43;;;;;;;4.30;1.48;;;;;;;;;;5035600;28;19928;-76
2022/07/03 12:26:09;;;;;;;6.68;1.70;;;;;;;;;;5034661;28;20041;-75
2022/07/03 12:28:36;;;;;;;3.90;1.50;;;;;;;;;;5032358;28;20054;-79
2022/07/03 12:31:02;;;;;;;4.57;1.23;;;;;;;;;;5030178;28;20041;-75
2022/07/03 12:33:30;;;;;;;5.10;1.70;;;;;;;;;;5029741;28;20041;-71
2022/07/03 12:36:07;;;;;;;4.15;2.80;;;;;;;;;;5024569;28;20037;-75
2022/07/03 12:38:36;;;;;;;4.93;1.67;;;;;;;;;;5022292;28;20497;-72
2022/07/03 12:41:11;;;;;;;4.10;1.48;;;;;;;;;;5030293;28;20421;-74
2022/07/03 12:43:41;;;;;;;4.97;1.40;;;;;;;;;;5032753;28;20045;-73
2022/07/03 12:46:26;;;;;;;2.70;1.30;;;;;;;;;;5033753;28;20060;-71
2022/07/03 12:48:54;;;;;;;5.80;1.65;;;;;;;;;;5034143;28;20041;-72
2022/07/03 12:51:43;;;;;;;4.20;1.40;;;;;;;;;;5036412;28;20129;-77
2022/07/03 12:54:08;;;;;;;3.70;1.35;;;;;;;;;;5035359;28;20145;-72
2022/07/03 12:56:35;;;;;;;2.53;1.30;;;;;;;;;;5031090;28;20081;-77
2022/07/03 12:59:18;;;;;;;5.82;1.30;;;;;;;;;;5030188;28;20118;-72
2022/07/03 13:02:04;;;;;;;4.18;1.58;;;;;;;;;;5027857;28;20053;-71
2022/07/03 13:04:36;;;;;;;3.47;1.42;;;;;;;;;;5032940;28;20053;-77
2022/07/03 13:07:06;;;;;;;6.05;1.42;;;;;;;;;;5034371;28;20045;-76
2022/07/03 13:09:34;;;;;;;3.08;1.45;;;;;;;;;;5032142;28;20048;-75
2022/07/03 13:12:01;;;;;;;6.63;1.60;;;;;;;;;;5032010;28;20056;-75
2022/07/03 13:14:27;;;;;;;2.42;1.42;;;;;;;;;;5031685;28;20049;-76
2022/07/03 13:16:55;;;;;;;4.65;1.63;;;;;;;;;;5025359;28;20041;-79
2022/07/03 13:19:23;;;;;;;3.60;1.45;;;;;;;;;;5035443;28;20054;-76
2022/07/03 13:21:51;;;;;;;8.98;1.58;;;;;;;;;;5037092;28;20049;-76
2022/07/03 13:24:19;;;;;;;4.38;1.20;;;;;;;;;;5027826;28;20038;-74
2022/07/03 13:26:45;;;;;;;5.10;1.48;;;;;;;;;;5027584;28;20069;-70
2022/07/03 13:29:12;;;;;;;10.57;2.05;;;;;;;;;;5035668;28;20072;-78
2022/07/03 13:31:38;;;;;;;5.97;1.45;;;;;;;;;;5034578;28;20052;-77
2022/07/03 13:34:03;;;;;;;7.55;1.65;;;;;;;;;;5035557;28;20046;-72
2022/07/03 13:36:30;;;;;;;4.47;1.20;;;;;;;;;;5036290;28;20052;-74
2022/07/03 13:38:57;;;;;;;3.10;1.50;;;;;;;;;;5024615;28;20057;-72
2022/07/03 13:41:23;;;;;;;7.78;1.58;;;;;;;;;;5029638;28;20068;-72
2022/07/03 13:43:50;;;;;;;2.92;1.33;;;;;;;;;;5030498;28;20052;-73
2022/07/03 13:46:17;;;;;;;4.63;1.25;;;;;;;;;;5030508;28;20045;-70
2022/07/03 13:48:43;;;;;;;5.60;1.48;;;;;;;;;;5031850;28;20625;-72
2022/07/03 13:51:10;;;;;;;3.97;1.50;;;;;;;;;;5026652;28;20121;-74
2022/07/03 13:53:36;;;;;;;3.92;1.45;;;;;;;;;;5023285;28;20487;-73
2022/07/03 13:56:02;;;;;;;3.17;1.35;;;;;;;;;;5031223;28;20499;-70
2022/07/03 13:58:28;;;;;;;5.50;1.73;;;;;;;;;;5031555;28;20049;-71
2022/07/03 14:00:54;;;;;;;4.20;1.30;;;;;;;;;;5029834;28;20079;-74
2022/07/03 14:03:21;;;;;;;3.30;1.40;;;;;;;;;;5030661;28;20114;-71
2022/07/03 14:05:50;;;;;;;5.05;1.30;;;;;;;;;;5023879;28;20118;-72
2022/07/03 14:08:18;;;;;;;3.55;1.35;;;;;;;;;;5024626;28;20045;-73
2022/07/03 14:10:44;;;;;;;2.20;1.20;;;;;;;;;;5030599;28;20068;-71
2022/07/03 14:13:09;;;;;;;3.13;1.60;;;;;;;;;;5026850;28;20045;-72
2022/07/03 14:15:35;;;;;;;3.35;1.45;;;;;;;;;;5031918;28;20473;-71
2022/07/03 14:18:01;;;;;;;5.13;1.50;;;;;;;;;;5033464;28;20045;-72
2022/07/03 14:20:28;;;;;;;3.40;1.58;;;;;;;;;;5031023;28;20057;-69
2022/07/03 14:22:54;;;;;;;2.92;1.30;;;;;;;;;;5031995;28;20041;-70
2022/07/03 14:25:20;;;;;;;4.03;1.65;;;;;;;;;;5033012;28;20041;-72
2022/07/03 14:33:21;;;;;;;6.97;2.70;;;;;;;;;;5034700;28;20110;-72
2022/07/03 14:35:46;;;;;;;6.70;2.10;;;;;;;;;;5026586;28;20045;-69
2022/07/03 14:38:12;;;;;;;15.55;4.35;;;;;;;;;;5038596;28;20025;-82
2022/07/03 14:40:39;;;;;;;7.22;1.92;;;;;;;;;;5038365;28;20083;-73
2022/07/03 14:43:05;;;;;;;9.27;2.22;;;;;;;;;;5028885;28;20064;-72
2022/07/03 14:45:31;;;;;;;3.95;1.65;;;;;;;;;;5029485;28;20087;-73
2022/07/03 14:47:57;;;;;;;6.13;1.73;;;;;;;;;;5015951;28;20598;-73
2022/07/03 14:50:23;;;;;;;4.90;1.40;;;;;;;;;;5024974;28;20121;-74
2022/07/03 14:52:49;;;;;;;2.97;1.67;;;;;;;;;;5027799;28;20124;-72
2022/07/03 14:55:15;;;;;;;3.85;1.58;;;;;;;;;;5023220;28;20066;-73
2022/07/03 14:57:44;;;;;;;5.47;1.70;;;;;;;;;;5012031;28;20033;-74
2022/07/03 15:00:13;;;;;;;4.93;1.38;;;;;;;;;;5029147;28;20088;-73
2022/07/03 15:02:55;;;;;;;4.57;1.70;;;;;;;;;;5028651;28;20128;-74
2022/07/03 15:05:27;;;;;;;6.72;1.60;;;;;;;;;;5027416;28;20049;-73
2022/07/03 15:08:14;;;;;;;6.45;2.00;;;;;;;;;;5028569;28;20421;-72
2022/07/03 15:10:40;;;;;;;3.42;1.60;;;;;;;;;;5028310;28;20053;-73
2022/07/03 15:13:06;;;;;;;4.47;1.80;;;;;;;;;;5028381;28;20056;-73
2022/07/03 15:15:34;;;;;;;6.90;2.05;;;;;;;;;;5028415;28;20676;-72
2022/07/03 15:18:01;;;;;;;5.03;2.03;;;;;;;;;;5029316;28;20045;-72